Time,TemperatureF,DewpointF,PressureIn,WindDirection,WindDirectionDegrees,WindSpeedMPH,WindSpeedGustMPH,Humidity,HourlyPrecipIn,Conditions,Clouds,dailyrainin,SoftwareType,DateUTC
2013-04-18 00:00:00,32.0,32.0,-100.00,North,-999,-999.0,-999.0,102,-99.99,,,0.00,,2013-04-18 07:00:00,
2013-04-18 00:52:00,32.0,32.0,-100.00,North,-999,-999.0,-999.0,102,-99.99,,,0.00,,2013-04-18 07:52:00,
2013-04-18 01:00:00,32.0,32.0,-100.00,SSW,209,1.0,2.0,103,-99.99,,,0.00,,2013-04-18 08:00:00,
2013-04-18 02:00:00,32.0,32.0,-100.00,NE,42,1.0,2.0,103,-99.99,,,0.00,,2013-04-18 09:00:00,
2013-04-18 03:00:00,32.0,32.0,-100.00,SSW,208,0.0,1.0,103,-99.99,,,0.00,,2013-04-18 10:00:00,
2013-04-18 04:00:00,32.0,32.0,-100.00,South,186,1.0,2.0,103,-99.99,,,0.00,,2013-04-18 11:00:00,
2013-04-18 05:00:00,32.0,32.0,-100.00,South,183,1.0,2.0,103,-99.99,,,0.00,,2013-04-18 12:00:00,
2013-04-18 06:00:00,32.0,32.0,-100.00,South,173,1.0,2.0,103,-99.99,,,0.00,,2013-04-18 13:00:00,
2013-04-18 07:00:00,32.0,32.0,-100.00,South,174,1.0,2.0,103,-99.99,,,0.00,,2013-04-18 14:00:00,
2013-04-18 08:00:00,33.0,33.0,-100.00,South,189,2.0,3.0,103,-99.99,,,0.00,,2013-04-18 15:00:00,
2013-04-18 09:00:00,34.0,34.0,-100.00,SW,234,2.0,2.0,103,-99.99,,,0.00,,2013-04-18 16:00:00,
2013-04-18 10:00:00,34.0,34.0,-100.00,SSW,206,1.0,2.0,102,-99.99,,,0.00,,2013-04-18 17:00:00,
2013-04-18 11:00:00,35.0,35.0,-100.00,SSE,167,2.0,2.0,102,-99.99,,,0.00,,2013-04-18 18:00:00,
2013-04-18 12:00:00,36.0,36.0,-100.00,SSW,194,2.0,3.0,101,-99.99,,,0.00,,2013-04-18 19:00:00,
2013-04-18 12:53:00,36.0,36.0,-100.00,SSW,194,2.0,3.0,101,-99.99,,,0.00,,2013-04-18 19:53:00,
2013-04-18 13:00:00,37.0,37.0,-100.00,SSW,204,2.0,3.0,100,-99.99,,,0.00,,2013-04-18 20:00:00,
2013-04-18 14:00:00,37.0,37.0,-100.00,SW,227,1.0,2.0,100,-99.99,,,0.00,,2013-04-18 21:00:00,
2013-04-18 15:00:00,37.0,37.0,-100.00,South,182,1.0,2.0,100,-99.99,,,0.00,,2013-04-18 22:00:00,
2013-04-18 16:00:00,38.0,38.0,-100.00,SE,133,1.0,3.0,100,-99.99,,,0.00,,2013-04-18 23:00:00,
2013-04-18 17:00:00,36.0,36.0,-100.00,South,175,1.0,2.0,100,-99.99,,,0.00,,2013-04-19 00:00:00,
2013-04-18 18:00:00,35.0,35.0,-100.00,SSW,203,1.0,2.0,101,-99.99,,,0.00,,2013-04-19 01:00:00,
2013-04-18 19:00:00,35.0,35.0,-100.00,WNW,299,1.0,3.0,101,-99.99,,,0.00,,2013-04-19 02:00:00,
2013-04-18 20:00:00,36.0,36.0,-100.00,South,169,2.0,4.0,102,-99.99,,,0.00,,2013-04-19 03:00:00,
2013-04-18 21:00:00,36.0,36.0,-100.00,South,189,4.0,5.0,102,-99.99,,,0.01,,2013-04-19 04:00:00,
2013-04-18 22:00:00,36.0,36.0,-100.00,South,185,3.0,4.0,103,-99.99,,,0.01,,2013-04-19 05:00:00,
2013-04-18 23:00:00,36.0,36.0,-100.00,South,187,2.0,3.0,103,-99.99,,,0.01,,2013-04-19 06:00:00,